Time;durP1;ratioP1;P1;durP2;ratioP2;P2;SDS_P1;SDS_P2;PMS_P1;PMS_P2;Temp;Humidity;BMP_temperature;BMP_pressure;BME280_temperature;BME280_humidity;BME280_pressure;Samples;Min_cycle;Max_cycle;Signal;HPM_P1;HPM_P2
2022/03/31 00:01:14;;;;;;;13.90;8.80;;;;;;;6.00;100.00;97047.69;5030624;28;20013;-69
2022/03/31 00:03:39;;;;;;;16.15;8.95;;;;;;;5.95;100.00;97039.47;5010215;28;20029;-68
2022/03/31 00:06:04;;;;;;;15.23;9.35;;;;;;;5.94;100.00;97035.97;5027199;28;20029;-68
2022/03/31 00:08:30;;;;;;;15.63;9.35;;;;;;;5.86;100.00;97039.72;5026827;28;20665;-68
2022/03/31 00:10:55;;;;;;;15.35;9.20;;;;;;;6.00;100.00;97037.81;5030655;28;20032;-68
2022/03/31 00:13:27;;;;;;;16.83;9.45;;;;;;;5.98;100.00;97033.69;5027676;28;20091;-68
2022/03/31 00:15:57;;;;;;;15.13;9.32;;;;;;;5.97;100.00;97032.84;5028676;28;20379;-68
2022/03/31 00:18:23;;;;;;;20.88;9.30;;;;;;;5.97;100.00;97026.66;5028128;28;20026;-68
2022/03/31 00:20:48;;;;;;;17.67;9.98;;;;;;;5.98;100.00;97026.47;5029250;28;20537;-69
2022/03/31 00:23:13;;;;;;;16.80;9.73;;;;;;;5.89;100.00;97017.84;5023448;28;22568;-68
2022/03/31 00:25:39;;;;;;;14.70;8.68;;;;;;;5.99;100.00;97019.22;5030567;28;20037;-69
2022/03/31 00:28:05;;;;;;;20.35;9.95;;;;;;;5.78;100.00;96989.00;5026560;28;20040;-69
2022/03/31 00:30:30;;;;;;;15.27;9.32;;;;;;;5.84;100.00;97009.59;5029818;28;20029;-67
2022/03/31 00:32:57;;;;;;;16.27;9.95;;;;;;;5.81;100.00;97018.06;5027056;28;20063;-69
2022/03/31 00:35:23;;;;;;;16.13;9.20;;;;;;;5.63;100.00;96989.31;5030048;28;20053;-69
2022/03/31 00:37:49;;;;;;;14.48;9.40;;;;;;;5.75;100.00;97010.91;5026433;28;20557;-69
2022/03/31 00:40:16;;;;;;;17.80;9.35;;;;;;;5.71;100.00;97001.63;5029895;28;20057;-68
2022/03/31 00:42:47;;;;;;;18.15;9.68;;;;;;;5.48;100.00;96986.94;5018489;28;20033;-68
2022/03/31 00:45:17;;;;;;;16.55;9.77;;;;;;;5.69;100.00;97017.13;5030198;28;20033;-68
2022/03/31 00:47:43;;;;;;;16.83;9.82;;;;;;;5.46;100.00;96997.03;5023016;28;20029;-68
2022/03/31 00:50:09;;;;;;;15.88;9.23;;;;;;;5.58;100.00;97005.25;5025803;28;20505;-69
2022/03/31 00:52:35;;;;;;;17.95;9.38;;;;;;;5.58;100.00;97012.44;5026890;28;20029;-68
2022/03/31 00:55:00;;;;;;;16.58;9.82;;;;;;;5.42;100.00;96995.84;5023431;28;20044;-69
2022/03/31 00:57:26;;;;;;;19.63;10.15;;;;;;;5.51;100.00;97009.81;5019885;28;20115;-69
2022/03/31 00:59:53;;;;;;;20.30;10.88;;;;;;;5.50;100.00;97008.16;5024547;28;20376;-68
2022/03/31 01:02:18;;;;;;;21.33;10.80;;;;;;;5.46;100.00;97005.09;5033030;28;20036;-68
2022/03/31 01:04:43;;;;;;;18.30;9.43;;;;;;;5.31;100.00;96990.31;5028889;28;20438;-69
2022/03/31 01:07:09;;;;;;;17.90;11.35;;;;;;;5.34;100.00;96990.69;5029418;28;20116;-68
2022/03/31 01:09:34;;;;;;;19.00;10.82;;;;;;;5.21;100.00;96985.41;5026949;28;20052;-69
2022/03/31 01:12:01;;;;;;;19.27;10.75;;;;;;;5.07;100.00;96978.47;5028472;28;20036;-69
2022/03/31 01:14:26;;;;;;;21.33;11.45;;;;;;;5.07;100.00;96983.84;5028220;28;20029;-68
2022/03/31 01:16:52;;;;;;;17.08;10.82;;;;;;;5.00;100.00;96983.84;5028206;28;20525;-69
2022/03/31 01:19:17;;;;;;;20.63;11.27;;;;;;;4.95;100.00;96984.53;5025940;28;20025;-68
2022/03/31 01:21:46;;;;;;;20.58;10.68;;;;;;;4.88;100.00;96983.72;5027760;28;20044;-68
2022/03/31 01:24:15;;;;;;;19.70;11.13;;;;;;;4.81;100.00;96969.50;5024445;28;20726;-69
2022/03/31 01:26:41;;;;;;;19.90;11.55;;;;;;;4.73;100.00;96972.44;5026383;28;20025;-69
2022/03/31 01:29:08;;;;;;;19.48;11.23;;;;;;;4.61;100.00;96966.88;5028204;28;20025;-69
2022/03/31 01:31:35;;;;;;;16.85;11.23;;;;;;;4.54;100.00;96969.59;5028297;28;20103;-69
2022/03/31 01:34:00;;;;;;;18.90;11.15;;;;;;;4.51;100.00;96970.03;5028642;28;20041;-69
2022/03/31 01:36:26;;;;;;;20.05;11.75;;;;;;;4.42;100.00;96957.06;5023493;28;20025;-67
2022/03/31 01:38:52;;;;;;;19.80;11.45;;;;;;;4.36;100.00;96962.22;5008321;28;20486;-67
2022/03/31 01:41:17;;;;;;;23.52;11.38;;;;;;;4.37;100.00;96963.84;5027802;28;20048;-68
2022/03/31 01:43:43;;;;;;;20.85;11.60;;;;;;;4.36;100.00;96962.22;5027943;28;20037;-68
2022/03/31 01:46:09;;;;;;;21.17;11.23;;;;;;;4.29;100.00;96963.25;5024968;28;20108;-68
2022/03/31 01:48:35;;;;;;;16.33;10.57;;;;;;;4.42;100.00;96959.75;5029650;28;20048;-68
2022/03/31 01:51:04;;;;;;;23.23;12.15;;;;;;;4.29;100.00;96961.41;5029310;28;20364;-68
2022/03/31 01:53:31;;;;;;;18.05;11.27;;;;;;;4.12;100.00;96938.81;5025320;28;20057;-67
2022/03/31 01:55:57;;;;;;;17.85;10.45;;;;;;;3.99;100.00;96928.94;5029658;28;20025;-68
2022/03/31 01:58:22;;;;;;;20.98;11.23;;;;;;;4.11;100.00;96951.38;5027605;28;20029;-67
2022/03/31 02:00:48;;;;;;;21.13;11.65;;;;;;;4.06;100.00;96944.97;5028487;28;20060;-67
2022/03/31 02:03:13;;;;;;;21.60;11.77;;;;;;;4.04;100.00;96950.53;5026931;28;20411;-68
2022/03/31 02:05:38;;;;;;;20.25;12.13;;;;;;;3.99;100.00;96944.19;5027610;28;20025;-67
2022/03/31 02:08:04;;;;;;;20.27;12.23;;;;;;;3.97;100.00;96941.69;5023672;28;20029;-68
2022/03/31 02:10:29;;;;;;;21.38;12.07;;;;;;;3.89;100.00;96942.72;5028695;28;20021;-69
2022/03/31 02:12:54;;;;;;;21.17;12.05;;;;;;;3.83;100.00;96932.03;5005235;28;20025;-70
2022/03/31 02:15:23;;;;;;;24.35;12.88;;;;;;;3.72;100.00;96920.94;5028583;28;20467;-70
2022/03/31 02:17:49;;;;;;;23.08;12.70;;;;;;;3.71;100.00;96916.59;5026915;28;20029;-69
2022/03/31 02:20:15;;;;;;;25.40;12.27;;;;;;;3.80;100.00;96929.75;5027650;28;20056;-69
2022/03/31 02:22:41;;;;;;;21.92;12.77;;;;;;;3.80;100.00;96935.09;5026043;28;20056;-70
2022/03/31 02:25:08;;;;;;;21.95;12.18;;;;;;;3.68;100.00;96930.38;5010243;28;20033;-69
2022/03/31 02:27:37;;;;;;;21.30;12.68;;;;;;;3.64;100.00;96926.50;5026089;28;20029;-70
2022/03/31 02:30:05;;;;;;;19.63;11.77;;;;;;;3.47;100.00;96896.66;5026240;28;20065;-69
2022/03/31 02:32:31;;;;;;;22.10;12.82;;;;;;;3.55;100.00;96926.91;5026832;28;20561;-69
2022/03/31 02:34:57;;;;;;;23.40;13.57;;;;;;;3.50;100.00;96919.47;5025959;28;20033;-69
2022/03/31 02:37:22;;;;;;;25.27;13.95;;;;;;;3.39;100.00;96902.19;5026460;28;20052;-70
2022/03/31 02:39:48;;;;;;;21.33;12.43;;;;;;;3.38;100.00;96913.94;5024829;28;20037;-69
2022/03/31 02:42:14;;;;;;;24.05;13.95;;;;;;;3.43;100.00;96907.94;5022288;28;20036;-69
2022/03/31 02:44:40;;;;;;;25.17;14.55;;;;;;;3.34;100.00;96909.19;5011153;28;20033;-69
2022/03/31 02:47:05;;;;;;;21.73;12.98;;;;;;;3.18;100.00;96884.50;5009366;28;20406;-69
2022/03/31 02:49:30;;;;;;;22.13;13.00;;;;;;;3.24;100.00;96910.41;5030152;28;20464;-70
2022/03/31 02:51:56;;;;;;;23.48;12.77;;;;;;;3.22;100.00;96914.31;5026157;28;20036;-69
2022/03/31 02:57:05;;;;;;;20.25;11.30;;;;;;;3.20;100.00;96914.53;5019604;28;20039;-69
2022/03/31 02:59:30;;;;;;;21.60;12.10;;;;;;;3.25;100.00;96906.72;5027300;28;20041;-69
2022/03/31 03:01:56;;;;;;;23.23;13.18;;;;;;;3.34;100.00;96904.66;5028096;28;20029;-67
2022/03/31 03:04:23;;;;;;;23.48;12.95;;;;;;;3.37;100.00;96887.41;5026369;28;20021;-68
2022/03/31 03:06:48;;;;;;;21.88;11.95;;;;;;;3.47;100.00;96887.81;5025116;28;20025;-68
2022/03/31 03:09:14;;;;;;;20.95;12.90;;;;;;;3.53;100.00;96892.34;5027062;28;20025;-68
2022/03/31 03:11:39;;;;;;;24.45;13.10;;;;;;;3.58;100.00;96879.16;5027601;28;20021;-69
2022/03/31 03:14:04;;;;;;;22.73;11.75;;;;;;;3.42;100.00;96861.69;5027319;28;20525;-67
2022/03/31 03:16:30;;;;;;;22.95;12.98;;;;;;;3.56;100.00;96885.75;5023460;28;20029;-66
2022/03/31 03:18:55;;;;;;;20.77;12.05;;;;;;;3.52;100.00;96871.97;5029148;28;20123;-68
2022/03/31 03:21:21;;;;;;;19.70;11.60;;;;;;;3.47;100.00;96877.13;5027676;28;20479;-68
2022/03/31 03:23:46;;;;;;;23.30;13.07;;;;;;;3.51;100.00;96876.50;5031057;28;20048;-67
2022/03/31 03:26:12;;;;;;;23.30;12.43;;;;;;;3.53;100.00;96881.63;5031116;28;20029;-69
2022/03/31 03:28:37;;;;;;;22.67;13.20;;;;;;;3.52;100.00;96871.97;5028116;28;20025;-69
2022/03/31 03:31:04;;;;;;;21.20;11.98;;;;;;;3.55;100.00;96863.53;5013541;28;20039;-68
2022/03/31 03:33:30;;;;;;;23.40;12.82;;;;;;;3.68;100.00;96874.22;5031812;28;20545;-68
2022/03/31 03:35:55;;;;;;;20.80;12.25;;;;;;;3.75;100.00;96879.59;5031227;28;20411;-68
2022/03/31 03:38:21;;;;;;;20.83;11.90;;;;;;;3.71;100.00;96852.41;5026791;28;20038;-69
2022/03/31 03:40:46;;;;;;;21.02;12.35;;;;;;;3.94;100.00;96883.25;5028152;28;20034;-68
2022/03/31 03:43:12;;;;;;;24.23;12.38;;;;;;;3.98;100.00;96879.13;5031622;28;20096;-69
2022/03/31 03:45:38;;;;;;;21.90;12.38;;;;;;;4.08;100.00;96876.81;5029673;28;20021;-69
2022/03/31 03:48:04;;;;;;;22.00;11.40;;;;;;;4.11;100.00;96870.25;5027647;28;20098;-70
2022/03/31 03:50:30;;;;;;;20.98;11.52;;;;;;;4.11;100.00;96854.19;5019111;28;20018;-71
2022/03/31 03:52:55;;;;;;;18.95;11.73;;;;;;;4.10;100.00;96837.31;5028389;28;20092;-72
2022/03/31 03:55:21;;;;;;;22.48;11.50;;;;;;;4.23;100.00;96865.88;5015708;28;20044;-70
2022/03/31 03:57:47;;;;;;;19.40;11.38;;;;;;;4.15;100.00;96853.56;5027704;28;20021;-76
2022/03/31 04:00:12;;;;;;;21.45;12.05;;;;;;;4.36;100.00;96865.03;5005517;28;20025;-71
2022/03/31 04:02:39;;;;;;;17.67;10.57;;;;;;;4.34;100.00;96867.09;5024732;28;20116;-70
2022/03/31 04:05:05;;;;;;;17.20;10.77;;;;;;;4.14;100.00;96840.41;5026062;28;20021;-67
2022/03/31 04:07:31;;;;;;;20.17;11.43;;;;;;;4.30;100.00;96865.88;5006147;28;20021;-71
2022/03/31 04:09:56;;;;;;;16.10;10.10;;;;;;;4.26;100.00;96838.69;5028416;28;20490;-70
2022/03/31 04:12:22;;;;;;;17.73;10.93;;;;;;;4.31;100.00;96862.16;5026198;28;20457;-70
2022/03/31 04:14:48;;;;;;;18.50;10.60;;;;;;;4.36;100.00;96863.16;5029898;28;20029;-72
2022/03/31 04:17:13;;;;;;;18.08;10.48;;;;;;;4.23;100.00;96849.81;5029011;28;20037;-72
2022/03/31 04:19:39;;;;;;;17.10;10.20;;;;;;;4.24;100.00;96851.47;5030236;28;20037;-72
2022/03/31 04:22:04;;;;;;;18.20;10.23;;;;;;;4.42;100.00;96864.16;5011529;28;20040;-71
2022/03/31 04:24:29;;;;;;;16.60;9.95;;;;;;;4.43;100.00;96851.59;5030016;28;20470;-72
2022/03/31 04:26:55;;;;;;;18.63;10.45;;;;;;;4.45;100.00;96846.84;5027959;28;20484;-70
2022/03/31 04:29:20;;;;;;;20.98;11.10;;;;;;;4.48;100.00;96867.84;5025857;28;20025;-70
2022/03/31 04:31:46;;;;;;;18.88;10.40;;;;;;;4.48;100.00;96860.66;5022163;28;20043;-67
2022/03/31 04:34:15;;;;;;;21.15;12.00;;;;;;;4.47;100.00;96861.69;5028343;28;20031;-68
2022/03/31 04:36:40;;;;;;;18.95;10.80;;;;;;;4.33;100.00;96847.53;5023614;28;20091;-70
2022/03/31 04:39:06;;;;;;;21.98;11.63;;;;;;;4.44;100.00;96858.63;5009677;28;20026;-72
2022/03/31 04:41:31;;;;;;;19.10;11.32;;;;;;;4.46;100.00;96860.03;5028382;28;20032;-71
2022/03/31 04:43:56;;;;;;;19.73;12.07;;;;;;;4.33;100.00;96844.03;5028210;28;20029;-77
2022/03/31 04:46:22;;;;;;;23.25;10.52;;;;;;;4.48;100.00;96857.97;5025917;28;20437;-69
2022/03/31 04:48:47;;;;;;;17.30;10.88;;;;;;;4.47;100.00;96863.53;5028851;28;20040;-70
2022/03/31 04:51:12;;;;;;;18.50;11.43;;;;;;;4.43;100.00;96860.47;5029804;28;20137;-70
2022/03/31 04:53:38;;;;;;;21.58;12.00;;;;;;;4.30;100.00;96845.28;5025218;28;20486;-72
2022/03/31 04:56:04;;;;;;;22.08;10.93;;;;;;;4.48;100.00;96871.38;5028085;28;20573;-69
2022/03/31 04:58:30;;;;;;;20.08;11.35;;;;;;;4.35;100.00;96841.97;5030222;28;20083;-73
2022/03/31 05:00:55;;;;;;;20.38;11.20;;;;;;;4.55;100.00;96865.97;5028547;28;20104;-71
2022/03/31 05:03:21;;;;;;;19.65;11.30;;;;;;;4.48;100.00;96857.13;5028031;28;20499;-71
2022/03/31 05:05:46;;;;;;;18.00;10.98;;;;;;;4.46;100.00;96853.88;5022309;28;20033;-72
2022/03/31 05:08:12;;;;;;;21.90;10.88;;;;;;;4.35;100.00;96855.38;5029902;28;20053;-74
2022/03/31 05:10:38;;;;;;;20.17;11.05;;;;;;;4.24;100.00;96827.38;5013501;28;20108;-73
2022/03/31 05:13:03;;;;;;;21.95;11.40;;;;;;;4.22;100.00;96826.78;5031637;28;20549;-75
2022/03/31 05:15:29;;;;;;;19.40;10.50;;;;;;;4.27;100.00;96826.13;5027774;28;20879;-69
2022/03/31 05:17:54;;;;;;;22.00;11.55;;;;;;;4.35;100.00;96833.94;5028386;28;20083;-68
2022/03/31 05:20:21;;;;;;;22.73;11.30;;;;;;;4.13;100.00;96810.13;5027635;28;20026;-72
2022/03/31 05:22:46;;;;;;;21.65;12.45;;;;;;;4.25;100.00;96825.53;5030424;28;20079;-77
2022/03/31 05:25:12;;;;;;;21.33;12.38;;;;;;;4.28;100.00;96833.16;5014089;28;20033;-76
2022/03/31 05:27:45;;;;;;;24.73;12.00;;;;;;;4.31;100.00;96830.03;5015010;28;20025;-74
2022/03/31 05:30:13;;;;;;;21.40;12.20;;;;;;;4.49;100.00;96848.91;5041454;28;20021;-73
2022/03/31 05:32:38;;;;;;;23.50;12.40;;;;;;;4.55;100.00;96848.03;5030111;28;20025;-72
2022/03/31 05:35:05;;;;;;;22.17;11.63;;;;;;;4.44;100.00;96829.97;5036054;28;20553;-73
2022/03/31 05:37:30;;;;;;;27.23;13.63;;;;;;;4.61;100.00;96835.66;5017420;28;20029;-72
2022/03/31 05:39:55;;;;;;;21.23;11.90;;;;;;;4.53;100.00;96823.34;5032420;28;20026;-73
2022/03/31 05:42:21;;;;;;;20.08;11.73;;;;;;;4.57;100.00;96813.03;5038661;28;20020;-73
2022/03/31 05:44:46;;;;;;;23.33;11.90;;;;;;;4.29;100.00;96767.84;5034455;28;20362;-74
2022/03/31 05:47:12;;;;;;;21.85;11.30;;;;;;;4.57;100.00;96813.84;5038312;28;20029;-73
2022/03/31 05:49:37;;;;;;;21.13;11.40;;;;;;;4.66;100.00;96816.28;5023990;28;20014;-74
2022/03/31 05:52:03;;;;;;;21.65;12.10;;;;;;;4.82;100.00;96831.81;5022568;28;20040;-73
2022/03/31 05:54:30;;;;;;;19.10;11.50;;;;;;;4.84;100.00;96837.81;5046861;28;20051;-74
2022/03/31 05:56:56;;;;;;;20.80;11.40;;;;;;;4.89;100.00;96827.25;5022453;28;20033;-74
2022/03/31 05:59:21;;;;;;;19.50;11.50;;;;;;;4.87;100.00;96807.06;5034417;28;20440;-73
2022/03/31 06:01:46;;;;;;;22.02;11.23;;;;;;;4.89;100.00;96811.19;5029908;28;20032;-73
2022/03/31 06:04:12;;;;;;;23.35;12.27;;;;;;;4.93;100.00;96809.72;5008724;28;20025;-72
2022/03/31 06:06:37;;;;;;;19.55;11.18;;;;;;;5.16;100.00;96837.78;5026832;28;20068;-70
2022/03/31 06:09:02;;;;;;;19.25;11.50;;;;;;;5.22;100.00;96819.00;5028401;28;20030;-74
2022/03/31 06:11:28;;;;;;;21.13;11.20;;;;;;;5.19;100.00;96823.97;5012794;28;20025;-73
2022/03/31 06:13:53;;;;;;;21.08;12.15;;;;;;;5.22;100.00;96802.91;5030619;28;20037;-75
2022/03/31 06:16:19;;;;;;;20.70;11.73;;;;;;;5.47;100.00;96840.44;5032666;28;20060;-75
2022/03/31 06:18:45;;;;;;;18.67;11.40;;;;;;;5.52;99.66;96831.72;5029004;28;20382;-74
2022/03/31 06:21:11;;;;;;;22.85;11.85;;;;;;;5.61;100.00;96818.88;5033198;28;20021;-75
2022/03/31 06:23:37;;;;;;;19.30;11.23;;;;;;;5.76;99.23;96832.75;5026221;28;20418;-74
2022/03/31 06:26:03;;;;;;;19.92;11.50;;;;;;;5.84;99.70;96842.38;5030582;28;20101;-76
2022/03/31 06:28:30;;;;;;;18.23;10.90;;;;;;;5.83;98.41;96844.25;5030759;28;20547;-73
2022/03/31 06:30:55;;;;;;;19.17;11.70;;;;;;;5.93;98.00;96833.00;5026107;28;20638;-71
2022/03/31 06:33:21;;;;;;;19.65;10.98;;;;;;;5.88;98.00;96847.09;5026838;28;20040;-71
2022/03/31 06:35:47;;;;;;;21.30;12.20;;;;;;;5.95;98.74;96830.97;5028970;28;20059;-69
2022/03/31 06:38:12;;;;;;;23.00;12.82;;;;;;;5.89;98.70;96813.88;5027649;28;20421;-71
2022/03/31 06:40:40;;;;;;;19.38;11.75;;;;;;;6.15;96.56;96826.19;5024942;28;20026;-70
2022/03/31 06:43:06;;;;;;;23.10;13.30;;;;;;;6.26;95.66;96832.69;5028214;28;20029;-70
2022/03/31 06:45:31;;;;;;;21.48;12.23;;;;;;;6.20;94.75;96809.41;5027476;28;20026;-73
2022/03/31 06:47:58;;;;;;;18.67;11.00;;;;;;;6.35;95.02;96833.19;5026522;28;20495;-70
2022/03/31 06:50:24;;;;;;;19.85;11.48;;;;;;;6.36;94.27;96816.03;5027105;28;20057;-71
2022/03/31 06:52:50;;;;;;;19.08;11.35;;;;;;;6.51;94.70;96829.06;5007997;28;20175;-71
2022/03/31 06:55:15;;;;;;;19.58;11.45;;;;;;;6.40;94.83;96811.03;5031073;28;20033;-70
2022/03/31 06:57:40;;;;;;;20.38;12.30;;;;;;;6.61;93.67;96815.94;5030225;28;20025;-71
2022/03/31 07:00:06;;;;;;;19.05;11.32;;;;;;;6.63;92.89;96789.66;5027781;28;20475;-70
2022/03/31 07:02:32;;;;;;;20.77;11.48;;;;;;;7.08;90.92;96818.78;5006562;28;20021;-70
2022/03/31 07:04:57;;;;;;;19.40;11.55;;;;;;;7.12;87.99;96805.69;5023714;28;20032;-71
2022/03/31 07:07:24;;;;;;;20.98;11.45;;;;;;;7.05;89.65;96815.72;5025887;28;20025;-71
2022/03/31 07:09:51;;;;;;;19.58;10.93;;;;;;;7.03;89.27;96821.34;5029759;28;20124;-70
2022/03/31 07:12:16;;;;;;;19.85;11.70;;;;;;;7.33;89.25;96815.09;5028314;28;20029;-71
2022/03/31 07:14:43;;;;;;;20.58;12.10;;;;;;;7.14;89.12;96803.59;5010983;28;20030;-70
2022/03/31 07:17:09;;;;;;;19.42;12.40;;;;;;;7.39;88.32;96815.00;5029341;28;20029;-72
2022/03/31 07:19:34;;;;;;;20.63;12.10;;;;;;;7.28;88.60;96796.13;5025795;28;20029;-71
2022/03/31 07:22:00;;;;;;;17.77;11.23;;;;;;;7.52;88.04;96808.56;5026516;28;20034;-73
2022/03/31 07:24:25;;;;;;;18.60;11.75;;;;;;;7.29;87.98;96781.66;5026744;28;20034;-71
2022/03/31 07:26:51;;;;;;;20.45;12.38;;;;;;;7.68;86.29;96807.88;5022300;28;20091;-72
2022/03/31 07:29:16;;;;;;;19.60;11.85;;;;;;;7.71;85.73;96797.69;5025214;28;20106;-72
2022/03/31 07:31:42;;;;;;;20.17;10.98;;;;;;;7.78;85.68;96793.00;5023301;28;20611;-74
2022/03/31 07:34:07;;;;;;;17.88;10.98;;;;;;;7.99;85.86;96792.41;5023248;28;20032;-72
2022/03/31 07:36:32;;;;;;;17.15;11.00;;;;;;;7.98;84.83;96796.16;5029706;28;20032;-75
2022/03/31 07:38:57;;;;;;;17.20;11.10;;;;;;;8.30;85.19;96803.81;5022997;28;21854;-73
2022/03/31 07:41:23;;;;;;;17.50;10.63;;;;;;;8.39;83.14;96788.13;5022208;28;20025;-70
2022/03/31 07:43:48;;;;;;;16.65;10.80;;;;;;;8.49;82.05;96807.22;5024645;28;20508;-71
2022/03/31 07:46:14;;;;;;;18.80;11.82;;;;;;;8.40;82.99;96809.44;5021276;28;20041;-70
2022/03/31 07:48:39;;;;;;;16.98;11.38;;;;;;;8.54;83.34;96794.66;5016308;28;20476;-71
2022/03/31 07:51:04;;;;;;;18.77;11.07;;;;;;;8.35;82.04;96774.28;5002800;28;20033;-71
2022/03/31 07:53:34;;;;;;;17.65;11.38;;;;;;;8.51;83.01;96778.97;5005100;28;21795;-71
2022/03/31 07:56:03;;;;;;;16.50;10.65;;;;;;;8.56;81.67;96779.03;5030205;28;20076;-71
2022/03/31 07:58:29;;;;;;;20.13;11.20;;;;;;;8.51;81.11;96800.53;5029511;28;20025;-69
2022/03/31 08:00:55;;;;;;;15.75;10.32;;;;;;;8.49;81.57;96802.63;5024669;28;20033;-69
2022/03/31 08:03:22;;;;;;;17.40;10.13;;;;;;;8.41;81.62;96794.94;5030017;28;20048;-70
2022/03/31 08:05:48;;;;;;;17.10;11.40;;;;;;;8.28;83.48;96785.22;5013026;28;20029;-70
2022/03/31 08:08:13;;;;;;;18.05;11.13;;;;;;;8.52;83.07;96796.75;5029834;28;20029;-73
2022/03/31 08:10:39;;;;;;;17.45;11.43;;;;;;;8.59;82.04;96785.81;5015652;28;20010;-75
2022/03/31 08:13:04;;;;;;;17.77;11.05;;;;;;;8.44;82.63;96783.66;5013942;28;20029;-72
2022/03/31 08:15:30;;;;;;;19.60;11.43;;;;;;;8.60;83.41;96779.41;5034534;28;20060;-70
2022/03/31 08:17:55;;;;;;;18.50;11.20;;;;;;;8.78;81.92;96779.19;5021678;28;20063;-76
2022/03/31 08:20:21;;;;;;;18.42;11.65;;;;;;;8.88;82.54;96789.38;5023274;28;20057;-72
2022/03/31 08:22:47;;;;;;;17.83;11.05;;;;;;;9.00;80.54;96782.00;5029921;28;20049;-73
2022/03/31 08:25:13;;;;;;;16.33;10.70;;;;;;;9.11;77.74;96787.59;5028675;28;20422;-74
2022/03/31 08:27:40;;;;;;;17.63;11.18;;;;;;;9.71;75.71;96786.94;5020533;28;20041;-73
2022/03/31 08:30:24;;;;;;;17.08;11.10;;;;;;;10.33;73.53;96761.59;5012058;28;20030;-73
2022/03/31 08:32:49;;;;;;;15.90;10.88;;;;;;;10.50;71.21;96775.84;5029920;28;20033;-74
2022/03/31 08:35:15;;;;;;;16.65;10.77;;;;;;;10.75;72.50;96739.34;5028267;28;20083;-73
2022/03/31 08:37:41;;;;;;;16.35;11.05;;;;;;;10.63;72.03;96749.50;5014089;28;20114;-75
2022/03/31 08:40:11;;;;;;;17.08;10.57;;;;;;;10.75;71.06;96759.09;5031263;28;20076;-76
2022/03/31 08:42:37;;;;;;;19.27;10.90;;;;;;;10.82;70.61;96782.41;5025196;28;20063;-74
2022/03/31 08:45:03;;;;;;;15.15;10.07;;;;;;;10.80;69.52;96765.63;5027778;28;20068;-77
2022/03/31 08:47:28;;;;;;;18.80;10.80;;;;;;;10.65;70.39;96779.81;5031298;28;20526;-74
2022/03/31 08:49:55;;;;;;;18.83;11.23;;;;;;;10.72;71.93;96775.84;5029276;28;20067;-75
2022/03/31 08:52:22;;;;;;;15.98;10.40;;;;;;;10.70;70.00;96752.81;5026978;28;20113;-72
2022/03/31 08:54:47;;;;;;;14.65;10.32;;;;;;;10.58;72.26;96771.88;5028439;28;20025;-75
2022/03/31 08:57:13;;;;;;;17.23;10.80;;;;;;;10.53;70.50;96755.59;5029808;28;20048;-80
2022/03/31 08:59:38;;;;;;;15.95;10.30;;;;;;;10.90;70.20;96763.03;5036739;28;20108;-79
2022/03/31 09:02:03;;;;;;;14.18;9.93;;;;;;;11.04;69.66;96741.78;5037120;28;20084;-77
2022/03/31 09:04:29;;;;;;;15.23;10.55;;;;;;;10.82;70.42;96726.44;5032695;28;20029;-71
2022/03/31 09:07:02;;;;;;;16.70;10.70;;;;;;;11.18;69.73;96768.16;5030057;28;20033;-75
2022/03/31 09:09:28;;;;;;;17.90;10.27;;;;;;;11.15;69.10;96760.56;5031475;28;20026;-72
2022/03/31 09:11:53;;;;;;;15.32;10.35;;;;;;;11.41;68.63;96756.16;5030141;28;20037;-78
2022/03/31 09:14:29;;;;;;;16.63;10.88;;;;;;;11.57;68.28;96759.81;5033573;28;20087;-81
2022/03/31 09:16:54;;;;;;;17.33;10.50;;;;;;;11.56;67.03;96738.41;5031505;28;20125;-72
2022/03/31 09:19:20;;;;;;;16.40;10.30;;;;;;;11.54;66.67;96732.44;5030999;28;20117;-76
2022/03/31 09:22:03;;;;;;;14.98;10.70;;;;;;;11.35;68.73;96740.16;5031563;28;20028;-72
2022/03/31 09:24:31;;;;;;;16.00;11.40;;;;;;;11.08;70.00;96762.69;5024797;28;20169;-74
2022/03/31 09:26:58;;;;;;;16.15;10.38;;;;;;;10.48;71.34;96763.69;5024584;28;20025;-76
2022/03/31 09:29:25;;;;;;;16.48;11.23;;;;;;;10.43;72.34;96764.44;5028268;28;20030;-73
2022/03/31 09:31:54;;;;;;;17.08;10.32;;;;;;;10.45;72.79;96748.78;5029787;28;20472;-75
2022/03/31 09:34:20;;;;;;;16.75;10.50;;;;;;;10.71;73.27;96754.44;5023389;28;20033;-76
2022/03/31 09:36:52;;;;;;;15.65;10.63;;;;;;;10.77;71.45;96734.50;5027344;28;20037;-77
2022/03/31 09:39:18;;;;;;;16.90;11.25;;;;;;;10.90;71.68;96755.75;5007786;28;20037;-73
2022/03/31 09:41:47;;;;;;;17.35;10.88;;;;;;;10.94;69.86;96750.63;5029414;28;20159;-75
2022/03/31 09:44:17;;;;;;;18.80;11.82;;;;;;;10.61;71.74;96744.34;5030157;28;20048;-78
2022/03/31 09:46:43;;;;;;;19.02;10.98;;;;;;;10.87;71.02;96712.97;5011764;28;20087;-74
2022/03/31 09:49:12;;;;;;;17.42;10.52;;;;;;;11.29;68.50;96738.47;5004387;28;20483;-72
2022/03/31 09:51:38;;;;;;;18.10;11.50;;;;;;;11.41;68.64;96737.22;5023269;28;20693;-73
2022/03/31 09:54:03;;;;;;;17.52;10.57;;;;;;;11.45;67.62;96745.66;5022967;28;20092;-72
2022/03/31 09:56:33;;;;;;;19.02;12.35;;;;;;;11.40;67.83;96741.00;5027852;28;20033;-72
2022/03/31 09:59:01;;;;;;;15.52;10.48;;;;;;;11.62;66.79;96719.22;5022215;28;20510;-72
2022/03/31 10:01:27;;;;;;;15.82;10.57;;;;;;;12.39;63.32;96718.81;5029769;28;20719;-72
2022/03/31 10:03:54;;;;;;;15.10;10.63;;;;;;;12.81;62.61;96713.22;5024998;28;20041;-73
2022/03/31 10:06:20;;;;;;;15.43;10.40;;;;;;;13.01;61.53;96730.63;5005533;28;20041;-73
2022/03/31 10:08:47;;;;;;;16.13;10.90;;;;;;;12.76;62.13;96701.53;5021075;28;20025;-74
2022/03/31 10:11:13;;;;;;;17.48;11.48;;;;;;;13.05;61.22;96727.09;5025982;28;20029;-71
2022/03/31 10:14:00;;;;;;;18.45;11.10;;;;;;;13.36;59.50;96711.66;5024618;28;20156;-74
2022/03/31 10:16:38;;;;;;;17.80;10.43;;;;;;;13.78;58.68;96721.38;5023316;28;20039;-73
2022/03/31 10:19:03;;;;;;;14.82;10.70;;;;;;;14.33;58.12;96702.44;4992151;28;20419;-72
2022/03/31 10:21:32;;;;;;;15.40;10.48;;;;;;;14.72;57.05;96720.75;5022421;28;20034;-73
2022/03/31 10:26:42;;;;;;;15.98;10.23;;;;;;;15.59;55.42;96713.84;5030887;28;20044;-74
2022/03/31 10:29:16;;;;;;;16.15;10.68;;;;;;;15.84;52.65;96704.66;5031297;28;20025;-74
2022/03/31 10:31:44;;;;;;;13.38;9.70;;;;;;;16.60;52.41;96692.81;5029463;28;20025;-74
2022/03/31 10:34:11;;;;;;;14.18;10.55;;;;;;;17.16;47.40;96699.41;5025970;28;20035;-72
2022/03/31 10:36:48;;;;;;;16.63;10.95;;;;;;;16.00;51.56;96679.63;5016979;28;20017;-73
2022/03/31 10:39:24;;;;;;;14.10;10.57;;;;;;;15.66;53.74;96698.78;5026013;28;20040;-71
2022/03/31 10:42:07;;;;;;;17.98;11.43;;;;;;;15.62;53.61;96686.03;5029856;28;20458;-74
2022/03/31 10:44:33;;;;;;;14.68;10.40;;;;;;;14.85;54.03;96703.00;5032742;28;20037;-73
2022/03/31 10:47:01;;;;;;;14.95;10.73;;;;;;;14.44;55.54;96692.34;5014320;28;20032;-73
2022/03/31 10:49:27;;;;;;;14.35;10.40;;;;;;;13.84;58.45;96675.19;5015485;28;20025;-73
2022/03/31 10:51:53;;;;;;;16.15;10.40;;;;;;;13.46;60.33;96694.53;5026789;28;20035;-74
2022/03/31 10:54:33;;;;;;;13.82;9.90;;;;;;;13.22;59.63;96686.09;5028841;28;20025;-72
2022/03/31 10:57:13;;;;;;;16.67;10.50;;;;;;;13.08;61.10;96687.75;5030811;28;20036;-71
2022/03/31 10:59:39;;;;;;;14.27;10.18;;;;;;;13.07;62.62;96691.53;5033359;28;20040;-70
2022/03/31 11:02:18;;;;;;;14.77;10.45;;;;;;;13.14;62.63;96686.66;5013963;28;20082;-73
2022/03/31 11:04:44;;;;;;;;;;;;;;;13.11;62.01;96688.00;5033529;28;20029;-72
2022/03/31 11:07:14;;;;;;;14.63;10.27;;;;;;;13.01;59.97;96688.00;5025717;28;19923;-72
2022/03/31 11:09:39;;;;;;;17.23;10.63;;;;;;;13.25;61.39;96687.44;5033842;28;20021;-71
2022/03/31 11:12:05;;;;;;;16.70;10.15;;;;;;;13.06;61.23;96679.03;5032670;28;20033;-75
2022/03/31 11:14:30;;;;;;;16.63;9.98;;;;;;;13.65;60.42;96677.66;5033083;28;20791;-71
2022/03/31 11:16:55;;;;;;;15.02;10.63;;;;;;;13.43;59.34;96653.53;5032671;28;20037;-72
2022/03/31 11:19:21;;;;;;;15.98;10.35;;;;;;;13.69;59.29;96652.38;5031943;28;20101;-75
2022/03/31 11:21:48;;;;;;;15.60;9.73;;;;;;;14.50;57.68;96665.91;5032404;28;20166;-76